sensor_id;sensor_type;location;lat;lon;timestamp;P1;durP1;ratioP1;P2;durP2;ratioP2
44670;SDS011;48397;53.016;-2.260;2023-06-19T00:02:01;21.10;;;13.18;;
44670;SDS011;48397;53.016;-2.260;2023-06-19T00:06:56;21.55;;;13.60;;
44670;SDS011;48397;53.016;-2.260;2023-06-19T00:09:25;21.38;;;15.00;;
44670;SDS011;48397;53.016;-2.260;2023-06-19T00:11:52;21.60;;;15.10;;
44670;SDS011;48397;53.016;-2.260;2023-06-19T00:16:48;20.70;;;13.85;;
44670;SDS011;48397;53.016;-2.260;2023-06-19T00:19:17;23.52;;;15.27;;
44670;SDS011;48397;53.016;-2.260;2023-06-19T00:26:40;28.40;;;17.40;;
44670;SDS011;48397;53.016;-2.260;2023-06-19T00:29:10;30.48;;;16.88;;
44670;SDS011;48397;53.016;-2.260;2023-06-19T00:31:38;27.85;;;17.70;;
44670;SDS011;48397;53.016;-2.260;2023-06-19T00:34:06;30.25;;;18.58;;
44670;SDS011;48397;53.016;-2.260;2023-06-19T00:39:07;29.98;;;18.80;;
44670;SDS011;48397;53.016;-2.260;2023-06-19T00:41:35;29.48;;;17.83;;
44670;SDS011;48397;53.016;-2.260;2023-06-19T00:44:03;27.10;;;17.88;;
44670;SDS011;48397;53.016;-2.260;2023-06-19T00:46:31;31.65;;;18.58;;
44670;SDS011;48397;53.016;-2.260;2023-06-19T00:48:59;30.45;;;18.23;;
44670;SDS011;48397;53.016;-2.260;2023-06-19T00:51:27;29.40;;;19.10;;
44670;SDS011;48397;53.016;-2.260;2023-06-19T01:01:20;32.20;;;18.77;;
44670;SDS011;48397;53.016;-2.260;2023-06-19T01:03:50;34.35;;;20.42;;
44670;SDS011;48397;53.016;-2.260;2023-06-19T01:08:56;37.58;;;20.95;;
44670;SDS011;48397;53.016;-2.260;2023-06-19T01:11:31;35.83;;;19.17;;
44670;SDS011;48397;53.016;-2.260;2023-06-19T01:14:05;36.55;;;20.92;;
44670;SDS011;48397;53.016;-2.260;2023-06-19T01:16:39;31.58;;;17.38;;
44670;SDS011;48397;53.016;-2.260;2023-06-19T01:19:09;29.55;;;16.90;;
44670;SDS011;48397;53.016;-2.260;2023-06-19T01:21:39;28.63;;;17.75;;
44670;SDS011;48397;53.016;-2.260;2023-06-19T01:26:35;33.38;;;19.10;;
44670;SDS011;48397;53.016;-2.260;2023-06-19T01:29:04;33.75;;;19.35;;
44670;SDS011;48397;53.016;-2.260;2023-06-19T01:31:36;27.65;;;16.83;;
44670;SDS011;48397;53.016;-2.260;2023-06-19T01:34:09;32.20;;;18.05;;
44670;SDS011;48397;53.016;-2.260;2023-06-19T01:36:39;27.52;;;17.05;;
44670;SDS011;48397;53.016;-2.260;2023-06-19T01:39:08;31.27;;;17.80;;
44670;SDS011;48397;53.016;-2.260;2023-06-19T01:41:37;27.60;;;17.38;;
44670;SDS011;48397;53.016;-2.260;2023-06-19T01:44:07;30.85;;;17.50;;
44670;SDS011;48397;53.016;-2.260;2023-06-19T01:46:35;31.92;;;19.08;;
44670;SDS011;48397;53.016;-2.260;2023-06-19T01:49:06;35.30;;;19.50;;
44670;SDS011;48397;53.016;-2.260;2023-06-19T01:51:35;34.88;;;19.55;;
44670;SDS011;48397;53.016;-2.260;2023-06-19T01:54:03;36.50;;;20.00;;
44670;SDS011;48397;53.016;-2.260;2023-06-19T01:58:59;37.88;;;21.08;;
44670;SDS011;48397;53.016;-2.260;2023-06-19T02:01:27;38.95;;;21.42;;
44670;SDS011;48397;53.016;-2.260;2023-06-19T02:03:55;40.75;;;21.17;;
44670;SDS011;48397;53.016;-2.260;2023-06-19T02:08:50;37.95;;;20.73;;
44670;SDS011;48397;53.016;-2.260;2023-06-19T02:11:18;36.70;;;20.95;;
44670;SDS011;48397;53.016;-2.260;2023-06-19T02:13:45;36.97;;;20.83;;
44670;SDS011;48397;53.016;-2.260;2023-06-19T02:18:41;36.70;;;21.48;;
44670;SDS011;48397;53.016;-2.260;2023-06-19T02:21:09;41.08;;;22.38;;
44670;SDS011;48397;53.016;-2.260;2023-06-19T02:26:06;44.22;;;22.45;;
44670;SDS011;48397;53.016;-2.260;2023-06-19T02:28:34;38.95;;;22.05;;
44670;SDS011;48397;53.016;-2.260;2023-06-19T02:31:02;46.67;;;23.00;;
44670;SDS011;48397;53.016;-2.260;2023-06-19T02:33:31;47.03;;;23.48;;
44670;SDS011;48397;53.016;-2.260;2023-06-19T02:36:00;49.38;;;25.02;;
44670;SDS011;48397;53.016;-2.260;2023-06-19T02:38:29;49.10;;;24.95;;
44670;SDS011;48397;53.016;-2.260;2023-06-19T02:43:29;47.35;;;24.85;;
44670;SDS011;48397;53.016;-2.260;2023-06-19T02:48:27;46.83;;;22.33;;
44670;SDS011;48397;53.016;-2.260;2023-06-19T02:50:55;39.83;;;21.08;;
44670;SDS011;48397;53.016;-2.260;2023-06-19T02:53:23;47.47;;;22.55;;
44670;SDS011;48397;53.016;-2.260;2023-06-19T02:55:51;48.50;;;23.77;;
44670;SDS011;48397;53.016;-2.260;2023-06-19T03:00:46;40.67;;;20.90;;
44670;SDS011;48397;53.016;-2.260;2023-06-19T03:03:16;45.58;;;22.35;;
44670;SDS011;48397;53.016;-2.260;2023-06-19T03:05:44;44.33;;;22.27;;
44670;SDS011;48397;53.016;-2.260;2023-06-19T03:08:12;39.83;;;21.23;;
44670;SDS011;48397;53.016;-2.260;2023-06-19T03:10:39;44.72;;;23.00;;
44670;SDS011;48397;53.016;-2.260;2023-06-19T03:13:07;40.85;;;21.35;;
44670;SDS011;48397;53.016;-2.260;2023-06-19T03:15:35;38.25;;;20.48;;
44670;SDS011;48397;53.016;-2.260;2023-06-19T03:18:03;46.70;;;22.33;;
44670;SDS011;48397;53.016;-2.260;2023-06-19T03:20:35;40.28;;;20.63;;
44670;SDS011;48397;53.016;-2.260;2023-06-19T03:23:03;45.38;;;20.73;;
44670;SDS011;48397;53.016;-2.260;2023-06-19T03:25:32;46.70;;;20.48;;
44670;SDS011;48397;53.016;-2.260;2023-06-19T03:28:03;44.78;;;20.33;;
44670;SDS011;48397;53.016;-2.260;2023-06-19T03:30:32;41.92;;;21.35;;
44670;SDS011;48397;53.016;-2.260;2023-06-19T03:33:01;49.25;;;21.80;;
44670;SDS011;48397;53.016;-2.260;2023-06-19T03:35:39;37.05;;;18.33;;
44670;SDS011;48397;53.016;-2.260;2023-06-19T03:38:13;41.55;;;19.25;;
44670;SDS011;48397;53.016;-2.260;2023-06-19T03:40:41;42.17;;;19.65;;
44670;SDS011;48397;53.016;-2.260;2023-06-19T03:43:11;39.47;;;19.55;;
44670;SDS011;48397;53.016;-2.260;2023-06-19T03:45:39;38.10;;;18.25;;
44670;SDS011;48397;53.016;-2.260;2023-06-19T03:48:07;38.00;;;18.23;;
44670;SDS011;48397;53.016;-2.260;2023-06-19T03:50:35;34.88;;;17.38;;
44670;SDS011;48397;53.016;-2.260;2023-06-19T03:53:03;38.83;;;18.75;;
44670;SDS011;48397;53.016;-2.260;2023-06-19T03:55:30;40.92;;;20.77;;
44670;SDS011;48397;53.016;-2.260;2023-06-19T03:57:58;50.80;;;21.27;;
44670;SDS011;48397;53.016;-2.260;2023-06-19T04:00:26;58.15;;;20.42;;
44670;SDS011;48397;53.016;-2.260;2023-06-19T04:02:54;39.88;;;19.75;;
44670;SDS011;48397;53.016;-2.260;2023-06-19T04:05:22;36.38;;;19.33;;
44670;SDS011;48397;53.016;-2.260;2023-06-19T04:07:50;33.67;;;17.80;;
44670;SDS011;48397;53.016;-2.260;2023-06-19T04:10:18;32.97;;;18.27;;
44670;SDS011;48397;53.016;-2.260;2023-06-19T04:12:46;36.90;;;18.73;;
44670;SDS011;48397;53.016;-2.260;2023-06-19T04:15:15;32.80;;;17.20;;
44670;SDS011;48397;53.016;-2.260;2023-06-19T04:17:42;32.88;;;16.90;;
44670;SDS011;48397;53.016;-2.260;2023-06-19T04:22:39;28.92;;;14.57;;
44670;SDS011;48397;53.016;-2.260;2023-06-19T04:25:08;34.72;;;17.40;;
44670;SDS011;48397;53.016;-2.260;2023-06-19T04:27:40;32.78;;;17.05;;
44670;SDS011;48397;53.016;-2.260;2023-06-19T04:30:08;28.50;;;15.77;;
44670;SDS011;48397;53.016;-2.260;2023-06-19T04:32:36;32.58;;;17.15;;
44670;SDS011;48397;53.016;-2.260;2023-06-19T04:35:08;33.10;;;16.65;;
44670;SDS011;48397;53.016;-2.260;2023-06-19T04:37:37;31.48;;;16.23;;
44670;SDS011;48397;53.016;-2.260;2023-06-19T04:40:05;34.67;;;16.80;;
44670;SDS011;48397;53.016;-2.260;2023-06-19T04:42:35;35.15;;;17.13;;
44670;SDS011;48397;53.016;-2.260;2023-06-19T04:45:02;35.97;;;17.42;;
44670;SDS011;48397;53.016;-2.260;2023-06-19T04:47:34;31.05;;;16.23;;
44670;SDS011;48397;53.016;-2.260;2023-06-19T04:50:19;35.97;;;17.77;;
44670;SDS011;48397;53.016;-2.260;2023-06-19T04:52:48;29.42;;;15.75;;
44670;SDS011;48397;53.016;-2.260;2023-06-19T04:55:18;29.55;;;15.23;;
44670;SDS011;48397;53.016;-2.260;2023-06-19T04:57:46;32.55;;;16.77;;
44670;SDS011;48397;53.016;-2.260;2023-06-19T05:00:15;33.97;;;16.60;;
44670;SDS011;48397;53.016;-2.260;2023-06-19T05:02:46;31.83;;;16.17;;
44670;SDS011;48397;53.016;-2.260;2023-06-19T05:05:15;34.53;;;17.30;;
44670;SDS011;48397;53.016;-2.260;2023-06-19T05:07:44;33.65;;;17.42;;
44670;SDS011;48397;53.016;-2.260;2023-06-19T05:10:12;31.67;;;18.02;;
44670;SDS011;48397;53.016;-2.260;2023-06-19T05:15:08;34.17;;;16.88;;
44670;SDS011;48397;53.016;-2.260;2023-06-19T05:17:36;34.28;;;17.38;;
44670;SDS011;48397;53.016;-2.260;2023-06-19T05:20:06;31.95;;;16.25;;
44670;SDS011;48397;53.016;-2.260;2023-06-19T05:22:34;29.35;;;16.83;;
44670;SDS011;48397;53.016;-2.260;2023-06-19T05:25:03;30.33;;;16.55;;
44670;SDS011;48397;53.016;-2.260;2023-06-19T05:27:31;34.17;;;16.67;;
44670;SDS011;48397;53.016;-2.260;2023-06-19T05:30:00;29.83;;;14.77;;
44670;SDS011;48397;53.016;-2.260;2023-06-19T05:34:55;29.63;;;15.10;;
44670;SDS011;48397;53.016;-2.260;2023-06-19T05:37:23;25.63;;;14.57;;
44670;SDS011;48397;53.016;-2.260;2023-06-19T05:39:51;27.05;;;14.95;;
44670;SDS011;48397;53.016;-2.260;2023-06-19T05:42:19;27.13;;;13.73;;
44670;SDS011;48397;53.016;-2.260;2023-06-19T05:44:46;26.52;;;13.77;;
44670;SDS011;48397;53.016;-2.260;2023-06-19T05:47:14;23.98;;;13.32;;
44670;SDS011;48397;53.016;-2.260;2023-06-19T05:49:44;25.40;;;12.48;;
44670;SDS011;48397;53.016;-2.260;2023-06-19T05:52:11;25.50;;;13.15;;
44670;SDS011;48397;53.016;-2.260;2023-06-19T05:54:39;24.63;;;12.68;;
44670;SDS011;48397;53.016;-2.260;2023-06-19T05:57:07;25.27;;;13.32;;
44670;SDS011;48397;53.016;-2.260;2023-06-19T05:59:34;27.10;;;13.75;;
44670;SDS011;48397;53.016;-2.260;2023-06-19T06:04:30;21.35;;;13.35;;
44670;SDS011;48397;53.016;-2.260;2023-06-19T06:06:58;27.45;;;13.93;;
44670;SDS011;48397;53.016;-2.260;2023-06-19T06:09:25;24.15;;;12.68;;
44670;SDS011;48397;53.016;-2.260;2023-06-19T06:11:54;22.48;;;12.30;;
44670;SDS011;48397;53.016;-2.260;2023-06-19T06:14:22;24.25;;;11.77;;
44670;SDS011;48397;53.016;-2.260;2023-06-19T06:16:50;21.33;;;10.13;;
44670;SDS011;48397;53.016;-2.260;2023-06-19T06:21:46;22.73;;;11.85;;
44670;SDS011;48397;53.016;-2.260;2023-06-19T06:24:14;26.52;;;12.70;;
44670;SDS011;48397;53.016;-2.260;2023-06-19T06:29:10;22.48;;;11.63;;
44670;SDS011;48397;53.016;-2.260;2023-06-19T06:31:37;21.13;;;10.68;;
44670;SDS011;48397;53.016;-2.260;2023-06-19T06:34:06;26.60;;;11.23;;
44670;SDS011;48397;53.016;-2.260;2023-06-19T06:36:34;21.83;;;10.88;;
44670;SDS011;48397;53.016;-2.260;2023-06-19T06:39:07;18.23;;;10.20;;
44670;SDS011;48397;53.016;-2.260;2023-06-19T06:44:05;24.75;;;10.13;;
44670;SDS011;48397;53.016;-2.260;2023-06-19T06:49:00;21.48;;;10.50;;
44670;SDS011;48397;53.016;-2.260;2023-06-19T06:51:27;20.63;;;10.25;;
44670;SDS011;48397;53.016;-2.260;2023-06-19T06:53:55;19.75;;;9.10;;
44670;SDS011;48397;53.016;-2.260;2023-06-19T06:56:23;17.90;;;9.23;;
44670;SDS011;48397;53.016;-2.260;2023-06-19T07:03:46;18.10;;;9.77;;
44670;SDS011;48397;53.016;-2.260;2023-06-19T07:06:14;17.98;;;9.15;;
44670;SDS011;48397;53.016;-2.260;2023-06-19T07:08:42;22.45;;;8.95;;
44670;SDS011;48397;53.016;-2.260;2023-06-19T07:11:10;14.95;;;8.38;;
44670;SDS011;48397;53.016;-2.260;2023-06-19T07:13:38;18.80;;;8.38;;
44670;SDS011;48397;53.016;-2.260;2023-06-19T07:16:07;15.50;;;8.25;;
44670;SDS011;48397;53.016;-2.260;2023-06-19T07:21:06;20.20;;;8.38;;
44670;SDS011;48397;53.016;-2.260;2023-06-19T07:23:39;13.95;;;7.65;;
44670;SDS011;48397;53.016;-2.260;2023-06-19T07:26:08;15.07;;;7.65;;
44670;SDS011;48397;53.016;-2.260;2023-06-19T07:28:36;16.92;;;7.80;;
44670;SDS011;48397;53.016;-2.260;2023-06-19T07:31:04;17.60;;;8.40;;
44670;SDS011;48397;53.016;-2.260;2023-06-19T07:38:29;15.25;;;7.35;;
44670;SDS011;48397;53.016;-2.260;2023-06-19T07:40:57;16.33;;;7.82;;
44670;SDS011;48397;53.016;-2.260;2023-06-19T07:43:25;17.33;;;7.25;;
44670;SDS011;48397;53.016;-2.260;2023-06-19T07:50:50;16.23;;;7.78;;
44670;SDS011;48397;53.016;-2.260;2023-06-19T07:53:18;15.38;;;7.68;;
44670;SDS011;48397;53.016;-2.260;2023-06-19T07:55:46;14.43;;;8.02;;
44670;SDS011;48397;53.016;-2.260;2023-06-19T07:58:13;14.48;;;7.38;;
44670;SDS011;48397;53.016;-2.260;2023-06-19T08:00:41;12.90;;;6.78;;
44670;SDS011;48397;53.016;-2.260;2023-06-19T08:03:09;16.17;;;6.93;;
44670;SDS011;48397;53.016;-2.260;2023-06-19T08:08:04;16.40;;;7.40;;
44670;SDS011;48397;53.016;-2.260;2023-06-19T08:10:33;12.55;;;7.57;;
44670;SDS011;48397;53.016;-2.260;2023-06-19T08:13:01;13.18;;;6.22;;
44670;SDS011;48397;53.016;-2.260;2023-06-19T08:15:28;12.02;;;7.15;;
44670;SDS011;48397;53.016;-2.260;2023-06-19T08:17:56;14.50;;;7.60;;
44670;SDS011;48397;53.016;-2.260;2023-06-19T08:20:24;12.25;;;7.28;;
44670;SDS011;48397;53.016;-2.260;2023-06-19T08:22:52;12.45;;;6.57;;
44670;SDS011;48397;53.016;-2.260;2023-06-19T08:30:15;14.18;;;7.65;;
44670;SDS011;48397;53.016;-2.260;2023-06-19T08:35:11;14.50;;;6.70;;
44670;SDS011;48397;53.016;-2.260;2023-06-19T08:37:38;12.93;;;5.93;;
44670;SDS011;48397;53.016;-2.260;2023-06-19T08:40:06;8.80;;;5.13;;
44670;SDS011;48397;53.016;-2.260;2023-06-19T08:42:36;11.75;;;6.35;;
44670;SDS011;48397;53.016;-2.260;2023-06-19T08:45:06;11.32;;;5.97;;
44670;SDS011;48397;53.016;-2.260;2023-06-19T08:47:36;9.23;;;4.82;;
44670;SDS011;48397;53.016;-2.260;2023-06-19T08:55:01;9.60;;;5.07;;
44670;SDS011;48397;53.016;-2.260;2023-06-19T08:57:35;9.95;;;5.82;;
44670;SDS011;48397;53.016;-2.260;2023-06-19T09:00:05;9.65;;;5.10;;
44670;SDS011;48397;53.016;-2.260;2023-06-19T09:02:41;11.23;;;4.80;;
44670;SDS011;48397;53.016;-2.260;2023-06-19T09:05:23;8.07;;;4.85;;
44670;SDS011;48397;53.016;-2.260;2023-06-19T09:07:59;9.73;;;5.30;;
44670;SDS011;48397;53.016;-2.260;2023-06-19T09:10:35;9.50;;;5.32;;
44670;SDS011;48397;53.016;-2.260;2023-06-19T09:13:03;11.18;;;4.93;;
44670;SDS011;48397;53.016;-2.260;2023-06-19T09:15:32;10.95;;;4.78;;
44670;SDS011;48397;53.016;-2.260;2023-06-19T09:18:02;9.50;;;5.18;;
44670;SDS011;48397;53.016;-2.260;2023-06-19T09:20:30;8.02;;;4.82;;
44670;SDS011;48397;53.016;-2.260;2023-06-19T09:22:59;8.70;;;4.88;;
44670;SDS011;48397;53.016;-2.260;2023-06-19T09:30:23;7.88;;;4.53;;
44670;SDS011;48397;53.016;-2.260;2023-06-19T09:32:51;7.55;;;4.03;;
44670;SDS011;48397;53.016;-2.260;2023-06-19T09:35:19;7.22;;;4.30;;
44670;SDS011;48397;53.016;-2.260;2023-06-19T09:37:47;6.35;;;3.75;;
44670;SDS011;48397;53.016;-2.260;2023-06-19T09:40:18;7.53;;;4.00;;
44670;SDS011;48397;53.016;-2.260;2023-06-19T09:42:46;6.55;;;3.72;;
44670;SDS011;48397;53.016;-2.260;2023-06-19T09:45:26;5.80;;;3.70;;
44670;SDS011;48397;53.016;-2.260;2023-06-19T09:47:56;7.15;;;3.90;;
44670;SDS011;48397;53.016;-2.260;2023-06-19T09:50:38;10.43;;;3.88;;
44670;SDS011;48397;53.016;-2.260;2023-06-19T09:53:07;7.45;;;3.78;;
44670;SDS011;48397;53.016;-2.260;2023-06-19T09:58:04;7.93;;;4.30;;
44670;SDS011;48397;53.016;-2.260;2023-06-19T10:00:32;8.68;;;4.28;;
44670;SDS011;48397;53.016;-2.260;2023-06-19T10:03:01;11.10;;;3.95;;
44670;SDS011;48397;53.016;-2.260;2023-06-19T10:05:33;7.68;;;4.53;;
44670;SDS011;48397;53.016;-2.260;2023-06-19T10:08:03;8.70;;;4.28;;
44670;SDS011;48397;53.016;-2.260;2023-06-19T10:10:32;6.57;;;4.30;;
44670;SDS011;48397;53.016;-2.260;2023-06-19T10:13:11;9.18;;;4.15;;
44670;SDS011;48397;53.016;-2.260;2023-06-19T10:15:41;8.77;;;3.67;;
44670;SDS011;48397;53.016;-2.260;2023-06-19T10:18:14;7.20;;;3.88;;
44670;SDS011;48397;53.016;-2.260;2023-06-19T10:20:44;9.35;;;3.88;;
44670;SDS011;48397;53.016;-2.260;2023-06-19T10:23:15;7.00;;;3.45;;
44670;SDS011;48397;53.016;-2.260;2023-06-19T10:25:48;8.13;;;3.28;;
44670;SDS011;48397;53.016;-2.260;2023-06-19T10:28:28;6.28;;;3.38;;
44670;SDS011;48397;53.016;-2.260;2023-06-19T10:33:28;7.82;;;3.53;;
44670;SDS011;48397;53.016;-2.260;2023-06-19T10:36:00;7.10;;;3.60;;
44670;SDS011;48397;53.016;-2.260;2023-06-19T10:38:29;6.22;;;3.17;;
44670;SDS011;48397;53.016;-2.260;2023-06-19T10:40:56;8.40;;;3.55;;
44670;SDS011;48397;53.016;-2.260;2023-06-19T10:43:25;6.22;;;3.20;;
44670;SDS011;48397;53.016;-2.260;2023-06-19T10:45:57;6.13;;;3.85;;
44670;SDS011;48397;53.016;-2.260;2023-06-19T10:48:26;6.05;;;3.30;;
44670;SDS011;48397;53.016;-2.260;2023-06-19T10:50:55;6.70;;;3.80;;
44670;SDS011;48397;53.016;-2.260;2023-06-19T10:53:27;10.63;;;3.85;;
44670;SDS011;48397;53.016;-2.260;2023-06-19T10:56:00;6.45;;;3.55;;
44670;SDS011;48397;53.016;-2.260;2023-06-19T10:58:29;6.20;;;3.60;;
44670;SDS011;48397;53.016;-2.260;2023-06-19T11:00:57;7.40;;;3.63;;
44670;SDS011;48397;53.016;-2.260;2023-06-19T11:03:24;6.93;;;3.50;;
44670;SDS011;48397;53.016;-2.260;2023-06-19T11:05:52;7.22;;;3.55;;
44670;SDS011;48397;53.016;-2.260;2023-06-19T11:08:21;5.55;;;3.50;;
44670;SDS011;48397;53.016;-2.260;2023-06-19T11:10:49;7.28;;;3.78;;
44670;SDS011;48397;53.016;-2.260;2023-06-19T11:13:18;5.63;;;3.20;;
44670;SDS011;48397;53.016;-2.260;2023-06-19T11:15:47;8.00;;;3.60;;
44670;SDS011;48397;53.016;-2.260;2023-06-19T11:18:19;6.60;;;3.38;;
44670;SDS011;48397;53.016;-2.260;2023-06-19T11:23:17;6.95;;;3.83;;
44670;SDS011;48397;53.016;-2.260;2023-06-19T11:26:02;7.15;;;3.53;;
44670;SDS011;48397;53.016;-2.260;2023-06-19T11:28:31;6.70;;;3.70;;
44670;SDS011;48397;53.016;-2.260;2023-06-19T11:31:02;8.93;;;3.80;;
44670;SDS011;48397;53.016;-2.260;2023-06-19T11:33:30;7.25;;;3.53;;
44670;SDS011;48397;53.016;-2.260;2023-06-19T11:36:01;5.70;;;2.90;;
44670;SDS011;48397;53.016;-2.260;2023-06-19T11:38:30;6.07;;;3.22;;
44670;SDS011;48397;53.016;-2.260;2023-06-19T11:43:30;5.03;;;3.20;;
44670;SDS011;48397;53.016;-2.260;2023-06-19T11:46:02;6.47;;;3.70;;
44670;SDS011;48397;53.016;-2.260;2023-06-19T11:48:31;5.53;;;3.25;;
44670;SDS011;48397;53.016;-2.260;2023-06-19T11:51:00;8.50;;;3.65;;
44670;SDS011;48397;53.016;-2.260;2023-06-19T11:53:28;7.30;;;3.65;;
44670;SDS011;48397;53.016;-2.260;2023-06-19T11:55:55;8.98;;;4.60;;
44670;SDS011;48397;53.016;-2.260;2023-06-19T11:58:23;7.05;;;3.88;;
44670;SDS011;48397;53.016;-2.260;2023-06-19T12:00:52;7.00;;;4.30;;
44670;SDS011;48397;53.016;-2.260;2023-06-19T12:03:20;8.20;;;4.00;;
44670;SDS011;48397;53.016;-2.260;2023-06-19T12:05:48;7.45;;;4.40;;
44670;SDS011;48397;53.016;-2.260;2023-06-19T12:10:43;9.70;;;4.28;;
44670;SDS011;48397;53.016;-2.260;2023-06-19T12:20:34;6.07;;;3.53;;
44670;SDS011;48397;53.016;-2.260;2023-06-19T12:25:29;9.32;;;4.28;;
44670;SDS011;48397;53.016;-2.260;2023-06-19T12:32:52;7.55;;;4.20;;
44670;SDS011;48397;53.016;-2.260;2023-06-19T12:35:20;7.18;;;4.20;;
44670;SDS011;48397;53.016;-2.260;2023-06-19T12:37:50;6.57;;;4.32;;
44670;SDS011;48397;53.016;-2.260;2023-06-19T12:42:45;5.90;;;3.92;;
44670;SDS011;48397;53.016;-2.260;2023-06-19T12:45:13;7.03;;;4.20;;
44670;SDS011;48397;53.016;-2.260;2023-06-19T12:47:41;8.65;;;3.88;;
44670;SDS011;48397;53.016;-2.260;2023-06-19T12:50:09;8.38;;;3.90;;
44670;SDS011;48397;53.016;-2.260;2023-06-19T12:52:38;7.18;;;3.92;;
44670;SDS011;48397;53.016;-2.260;2023-06-19T12:57:33;6.13;;;3.60;;
44670;SDS011;48397;53.016;-2.260;2023-06-19T13:00:02;7.13;;;3.50;;
44670;SDS011;48397;53.016;-2.260;2023-06-19T13:02:33;6.22;;;2.63;;
44670;SDS011;48397;53.016;-2.260;2023-06-19T13:05:01;6.38;;;2.78;;
44670;SDS011;48397;53.016;-2.260;2023-06-19T13:07:28;5.10;;;2.88;;
44670;SDS011;48397;53.016;-2.260;2023-06-19T13:09:56;4.43;;;2.60;;
44670;SDS011;48397;53.016;-2.260;2023-06-19T13:12:25;5.35;;;2.83;;
44670;SDS011;48397;53.016;-2.260;2023-06-19T13:14:52;8.27;;;3.42;;
44670;SDS011;48397;53.016;-2.260;2023-06-19T13:17:20;4.05;;;2.40;;
44670;SDS011;48397;53.016;-2.260;2023-06-19T13:19:48;5.07;;;2.30;;
44670;SDS011;48397;53.016;-2.260;2023-06-19T13:22:15;4.35;;;2.10;;
44670;SDS011;48397;53.016;-2.260;2023-06-19T13:24:43;3.95;;;2.50;;
44670;SDS011;48397;53.016;-2.260;2023-06-19T13:27:11;5.15;;;2.25;;
44670;SDS011;48397;53.016;-2.260;2023-06-19T13:29:38;2.95;;;1.98;;
44670;SDS011;48397;53.016;-2.260;2023-06-19T13:32:07;4.45;;;2.60;;
44670;SDS011;48397;53.016;-2.260;2023-06-19T13:34:35;3.92;;;2.42;;
44670;SDS011;48397;53.016;-2.260;2023-06-19T13:37:03;4.25;;;2.30;;
44670;SDS011;48397;53.016;-2.260;2023-06-19T13:39:31;4.20;;;2.30;;
44670;SDS011;48397;53.016;-2.260;2023-06-19T13:41:59;5.40;;;2.65;;
44670;SDS011;48397;53.016;-2.260;2023-06-19T13:44:29;5.93;;;2.60;;
44670;SDS011;48397;53.016;-2.260;2023-06-19T13:46:57;4.00;;;2.45;;
44670;SDS011;48397;53.016;-2.260;2023-06-19T13:49:25;5.22;;;2.85;;
44670;SDS011;48397;53.016;-2.260;2023-06-19T13:51:52;3.30;;;2.45;;
44670;SDS011;48397;53.016;-2.260;2023-06-19T13:54:20;4.80;;;2.65;;
44670;SDS011;48397;53.016;-2.260;2023-06-19T13:56:48;3.88;;;2.35;;
44670;SDS011;48397;53.016;-2.260;2023-06-19T13:59:18;4.32;;;2.30;;
44670;SDS011;48397;53.016;-2.260;2023-06-19T14:01:46;3.72;;;2.17;;
44670;SDS011;48397;53.016;-2.260;2023-06-19T14:04:13;6.05;;;2.65;;
44670;SDS011;48397;53.016;-2.260;2023-06-19T14:06:41;4.18;;;2.22;;
44670;SDS011;48397;53.016;-2.260;2023-06-19T14:09:10;3.25;;;2.08;;
44670;SDS011;48397;53.016;-2.260;2023-06-19T14:11:39;3.47;;;2.15;;
44670;SDS011;48397;53.016;-2.260;2023-06-19T14:14:07;4.07;;;2.40;;
44670;SDS011;48397;53.016;-2.260;2023-06-19T14:16:34;4.25;;;2.10;;
44670;SDS011;48397;53.016;-2.260;2023-06-19T14:19:02;4.55;;;2.47;;
44670;SDS011;48397;53.016;-2.260;2023-06-19T14:21:30;5.70;;;2.30;;
44670;SDS011;48397;53.016;-2.260;2023-06-19T14:23:57;4.82;;;2.20;;
44670;SDS011;48397;53.016;-2.260;2023-06-19T14:26:25;3.65;;;1.85;;
44670;SDS011;48397;53.016;-2.260;2023-06-19T14:28:53;8.00;;;2.50;;
44670;SDS011;48397;53.016;-2.260;2023-06-19T14:31:24;4.90;;;2.65;;
44670;SDS011;48397;53.016;-2.260;2023-06-19T14:33:52;5.72;;;2.67;;
44670;SDS011;48397;53.016;-2.260;2023-06-19T14:36:19;4.32;;;2.40;;
44670;SDS011;48397;53.016;-2.260;2023-06-19T14:38:47;5.75;;;2.30;;
44670;SDS011;48397;53.016;-2.260;2023-06-19T14:41:15;4.55;;;2.50;;
44670;SDS011;48397;53.016;-2.260;2023-06-19T14:43:43;4.35;;;2.25;;
44670;SDS011;48397;53.016;-2.260;2023-06-19T14:46:10;3.78;;;2.03;;
44670;SDS011;48397;53.016;-2.260;2023-06-19T14:48:51;4.15;;;2.33;;
44670;SDS011;48397;53.016;-2.260;2023-06-19T14:51:19;3.72;;;2.20;;
44670;SDS011;48397;53.016;-2.260;2023-06-19T14:53:47;3.70;;;2.15;;
44670;SDS011;48397;53.016;-2.260;2023-06-19T14:56:15;7.78;;;2.55;;
44670;SDS011;48397;53.016;-2.260;2023-06-19T14:58:43;3.47;;;2.22;;
44670;SDS011;48397;53.016;-2.260;2023-06-19T15:01:10;4.90;;;2.50;;
44670;SDS011;48397;53.016;-2.260;2023-06-19T15:03:38;2.88;;;1.90;;
44670;SDS011;48397;53.016;-2.260;2023-06-19T15:06:06;6.30;;;2.45;;
44670;SDS011;48397;53.016;-2.260;2023-06-19T15:08:34;3.55;;;2.10;;
44670;SDS011;48397;53.016;-2.260;2023-06-19T15:11:05;5.93;;;2.67;;
44670;SDS011;48397;53.016;-2.260;2023-06-19T15:13:33;6.30;;;2.65;;
44670;SDS011;48397;53.016;-2.260;2023-06-19T15:16:01;6.25;;;2.40;;
44670;SDS011;48397;53.016;-2.260;2023-06-19T15:18:32;3.70;;;2.20;;
44670;SDS011;48397;53.016;-2.260;2023-06-19T15:20:59;3.42;;;2.05;;
44670;SDS011;48397;53.016;-2.260;2023-06-19T15:23:27;3.65;;;2.13;;
44670;SDS011;48397;53.016;-2.260;2023-06-19T15:25:55;3.95;;;2.47;;
44670;SDS011;48397;53.016;-2.260;2023-06-19T15:28:23;4.55;;;2.40;;
44670;SDS011;48397;53.016;-2.260;2023-06-19T15:30:50;3.35;;;2.38;;
44670;SDS011;48397;53.016;-2.260;2023-06-19T15:33:18;3.60;;;2.08;;
44670;SDS011;48397;53.016;-2.260;2023-06-19T15:35:45;3.20;;;2.20;;
44670;SDS011;48397;53.016;-2.260;2023-06-19T15:38:14;3.30;;;2.08;;
44670;SDS011;48397;53.016;-2.260;2023-06-19T15:40:42;2.70;;;2.05;;
44670;SDS011;48397;53.016;-2.260;2023-06-19T15:43:10;3.30;;;2.20;;
44670;SDS011;48397;53.016;-2.260;2023-06-19T15:45:38;3.60;;;2.15;;
44670;SDS011;48397;53.016;-2.260;2023-06-19T15:48:05;5.25;;;2.00;;
44670;SDS011;48397;53.016;-2.260;2023-06-19T15:50:33;4.35;;;2.30;;
44670;SDS011;48397;53.016;-2.260;2023-06-19T15:53:01;3.38;;;2.10;;
44670;SDS011;48397;53.016;-2.260;2023-06-19T15:55:29;6.40;;;2.30;;
44670;SDS011;48397;53.016;-2.260;2023-06-19T15:57:56;4.03;;;2.25;;
44670;SDS011;48397;53.016;-2.260;2023-06-19T16:00:24;4.05;;;2.40;;
44670;SDS011;48397;53.016;-2.260;2023-06-19T16:02:52;3.60;;;2.50;;
44670;SDS011;48397;53.016;-2.260;2023-06-19T16:05:20;5.60;;;2.78;;
44670;SDS011;48397;53.016;-2.260;2023-06-19T16:07:48;4.15;;;2.50;;
44670;SDS011;48397;53.016;-2.260;2023-06-19T16:10:16;4.60;;;2.45;;
44670;SDS011;48397;53.016;-2.260;2023-06-19T16:12:44;4.20;;;2.20;;
44670;SDS011;48397;53.016;-2.260;2023-06-19T16:15:12;5.38;;;2.53;;
44670;SDS011;48397;53.016;-2.260;2023-06-19T16:17:40;5.75;;;2.50;;
44670;SDS011;48397;53.016;-2.260;2023-06-19T16:20:08;5.40;;;2.40;;
44670;SDS011;48397;53.016;-2.260;2023-06-19T16:22:36;4.35;;;2.25;;
44670;SDS011;48397;53.016;-2.260;2023-06-19T16:25:04;4.00;;;2.40;;
44670;SDS011;48397;53.016;-2.260;2023-06-19T16:27:32;4.80;;;2.30;;
44670;SDS011;48397;53.016;-2.260;2023-06-19T16:30:00;4.10;;;2.22;;
44670;SDS011;48397;53.016;-2.260;2023-06-19T16:32:31;4.65;;;2.40;;
44670;SDS011;48397;53.016;-2.260;2023-06-19T16:34:59;4.85;;;2.28;;
44670;SDS011;48397;53.016;-2.260;2023-06-19T16:37:27;2.92;;;1.80;;
44670;SDS011;48397;53.016;-2.260;2023-06-19T16:39:55;3.47;;;2.25;;
44670;SDS011;48397;53.016;-2.260;2023-06-19T16:42:24;2.95;;;2.00;;
44670;SDS011;48397;53.016;-2.260;2023-06-19T16:44:53;2.70;;;1.95;;